sensor_id;sensor_type;location;lat;lon;timestamp;P1;durP1;ratioP1;P2;durP2;ratioP2
21036;SDS011;10677;50.942;4.028;2022-12-24T00:01:46;36.80;;;5.53;;
21036;SDS011;10677;50.942;4.028;2022-12-24T00:04:12;34.30;;;5.30;;
21036;SDS011;10677;50.942;4.028;2022-12-24T00:06:37;34.22;;;5.78;;
21036;SDS011;10677;50.942;4.028;2022-12-24T00:09:03;29.98;;;5.05;;
21036;SDS011;10677;50.942;4.028;2022-12-24T00:11:30;36.60;;;5.65;;
21036;SDS011;10677;50.942;4.028;2022-12-24T00:13:56;35.75;;;5.22;;
21036;SDS011;10677;50.942;4.028;2022-12-24T00:16:22;32.47;;;6.15;;
21036;SDS011;10677;50.942;4.028;2022-12-24T00:18:47;33.55;;;5.25;;
21036;SDS011;10677;50.942;4.028;2022-12-24T00:21:14;37.85;;;5.07;;
21036;SDS011;10677;50.942;4.028;2022-12-24T00:23:40;32.50;;;5.63;;
21036;SDS011;10677;50.942;4.028;2022-12-24T00:26:06;36.72;;;5.25;;
21036;SDS011;10677;50.942;4.028;2022-12-24T00:28:32;35.35;;;5.60;;
21036;SDS011;10677;50.942;4.028;2022-12-24T00:30:57;31.15;;;4.88;;
21036;SDS011;10677;50.942;4.028;2022-12-24T00:33:23;27.95;;;4.65;;
21036;SDS011;10677;50.942;4.028;2022-12-24T00:35:49;29.73;;;4.75;;
21036;SDS011;10677;50.942;4.028;2022-12-24T00:38:16;32.28;;;5.18;;
21036;SDS011;10677;50.942;4.028;2022-12-24T00:40:42;29.20;;;4.30;;
21036;SDS011;10677;50.942;4.028;2022-12-24T00:43:07;30.65;;;5.20;;
21036;SDS011;10677;50.942;4.028;2022-12-24T00:45:33;22.05;;;4.10;;
21036;SDS011;10677;50.942;4.028;2022-12-24T00:47:58;21.70;;;3.63;;
21036;SDS011;10677;50.942;4.028;2022-12-24T00:50:24;24.83;;;4.03;;
21036;SDS011;10677;50.942;4.028;2022-12-24T00:52:50;27.42;;;4.25;;
21036;SDS011;10677;50.942;4.028;2022-12-24T00:55:15;23.00;;;4.28;;
21036;SDS011;10677;50.942;4.028;2022-12-24T00:57:41;31.27;;;4.18;;
21036;SDS011;10677;50.942;4.028;2022-12-24T01:00:07;21.80;;;4.05;;
21036;SDS011;10677;50.942;4.028;2022-12-24T01:02:33;29.52;;;5.43;;
21036;SDS011;10677;50.942;4.028;2022-12-24T01:04:58;38.70;;;5.75;;
21036;SDS011;10677;50.942;4.028;2022-12-24T01:07:37;39.38;;;5.43;;
21036;SDS011;10677;50.942;4.028;2022-12-24T01:10:08;32.90;;;5.25;;
21036;SDS011;10677;50.942;4.028;2022-12-24T01:12:35;31.92;;;5.20;;
21036;SDS011;10677;50.942;4.028;2022-12-24T01:15:02;32.15;;;5.15;;
21036;SDS011;10677;50.942;4.028;2022-12-24T01:17:30;27.48;;;4.38;;
21036;SDS011;10677;50.942;4.028;2022-12-24T01:19:56;22.25;;;4.00;;
21036;SDS011;10677;50.942;4.028;2022-12-24T01:22:22;34.65;;;4.85;;
21036;SDS011;10677;50.942;4.028;2022-12-24T01:24:48;37.10;;;5.38;;
21036;SDS011;10677;50.942;4.028;2022-12-24T01:27:13;31.80;;;4.53;;
21036;SDS011;10677;50.942;4.028;2022-12-24T01:29:40;34.40;;;5.45;;
21036;SDS011;10677;50.942;4.028;2022-12-24T01:32:05;38.45;;;5.07;;
21036;SDS011;10677;50.942;4.028;2022-12-24T01:34:31;37.70;;;5.55;;
21036;SDS011;10677;50.942;4.028;2022-12-24T01:36:57;34.72;;;4.43;;
21036;SDS011;10677;50.942;4.028;2022-12-24T01:39:22;32.83;;;5.47;;
21036;SDS011;10677;50.942;4.028;2022-12-24T01:41:48;33.65;;;5.18;;
21036;SDS011;10677;50.942;4.028;2022-12-24T01:44:33;35.70;;;5.65;;
21036;SDS011;10677;50.942;4.028;2022-12-24T01:47:06;30.70;;;4.60;;
21036;SDS011;10677;50.942;4.028;2022-12-24T01:49:42;31.08;;;4.88;;
21036;SDS011;10677;50.942;4.028;2022-12-24T01:52:25;32.60;;;5.82;;
21036;SDS011;10677;50.942;4.028;2022-12-24T01:55:12;28.92;;;4.88;;
21036;SDS011;10677;50.942;4.028;2022-12-24T01:57:48;28.63;;;5.03;;
21036;SDS011;10677;50.942;4.028;2022-12-24T02:00:20;32.70;;;5.68;;
21036;SDS011;10677;50.942;4.028;2022-12-24T02:02:46;35.55;;;5.30;;
21036;SDS011;10677;50.942;4.028;2022-12-24T02:05:16;31.20;;;5.03;;
21036;SDS011;10677;50.942;4.028;2022-12-24T02:07:46;35.70;;;5.18;;
21036;SDS011;10677;50.942;4.028;2022-12-24T02:10:13;28.08;;;4.88;;
21036;SDS011;10677;50.942;4.028;2022-12-24T02:12:39;38.53;;;5.80;;
21036;SDS011;10677;50.942;4.028;2022-12-24T02:15:07;33.00;;;5.00;;
21036;SDS011;10677;50.942;4.028;2022-12-24T02:17:41;32.25;;;4.88;;
21036;SDS011;10677;50.942;4.028;2022-12-24T02:27:56;26.45;;;4.75;;
21036;SDS011;10677;50.942;4.028;2022-12-24T02:30:41;36.30;;;5.07;;
21036;SDS011;10677;50.942;4.028;2022-12-24T02:38:48;31.73;;;4.85;;
21036;SDS011;10677;50.942;4.028;2022-12-24T02:41:19;33.47;;;4.80;;
21036;SDS011;10677;50.942;4.028;2022-12-24T02:43:51;30.58;;;4.18;;
21036;SDS011;10677;50.942;4.028;2022-12-24T02:46:21;24.83;;;3.95;;
21036;SDS011;10677;50.942;4.028;2022-12-24T02:48:51;27.55;;;5.50;;
21036;SDS011;10677;50.942;4.028;2022-12-24T02:51:22;27.70;;;4.25;;
21036;SDS011;10677;50.942;4.028;2022-12-24T02:53:48;23.48;;;3.85;;
21036;SDS011;10677;50.942;4.028;2022-12-24T02:56:24;25.15;;;3.97;;
21036;SDS011;10677;50.942;4.028;2022-12-24T03:12:02;24.90;;;4.13;;
21036;SDS011;10677;50.942;4.028;2022-12-24T03:14:31;20.23;;;3.80;;
21036;SDS011;10677;50.942;4.028;2022-12-24T03:16:58;26.92;;;4.13;;
21036;SDS011;10677;50.942;4.028;2022-12-24T03:19:26;25.45;;;4.10;;
21036;SDS011;10677;50.942;4.028;2022-12-24T03:21:53;21.25;;;3.72;;
21036;SDS011;10677;50.942;4.028;2022-12-24T03:24:21;23.17;;;4.35;;
21036;SDS011;10677;50.942;4.028;2022-12-24T03:26:47;21.42;;;4.18;;
21036;SDS011;10677;50.942;4.028;2022-12-24T03:29:14;20.98;;;3.97;;
21036;SDS011;10677;50.942;4.028;2022-12-24T03:31:42;18.60;;;4.00;;
21036;SDS011;10677;50.942;4.028;2022-12-24T03:34:13;21.85;;;4.07;;
21036;SDS011;10677;50.942;4.028;2022-12-24T03:36:39;20.20;;;4.53;;
21036;SDS011;10677;50.942;4.028;2022-12-24T03:39:05;24.17;;;4.40;;
21036;SDS011;10677;50.942;4.028;2022-12-24T03:41:31;17.60;;;4.30;;
21036;SDS011;10677;50.942;4.028;2022-12-24T03:43:57;22.02;;;4.55;;
21036;SDS011;10677;50.942;4.028;2022-12-24T03:46:23;31.35;;;5.70;;
21036;SDS011;10677;50.942;4.028;2022-12-24T03:48:49;26.20;;;5.57;;
21036;SDS011;10677;50.942;4.028;2022-12-24T03:51:22;35.72;;;5.65;;
21036;SDS011;10677;50.942;4.028;2022-12-24T03:53:51;32.50;;;5.43;;
21036;SDS011;10677;50.942;4.028;2022-12-24T03:56:17;29.60;;;4.90;;
21036;SDS011;10677;50.942;4.028;2022-12-24T03:58:44;25.15;;;5.13;;
21036;SDS011;10677;50.942;4.028;2022-12-24T04:01:10;39.10;;;5.75;;
21036;SDS011;10677;50.942;4.028;2022-12-24T04:03:35;34.38;;;5.85;;
21036;SDS011;10677;50.942;4.028;2022-12-24T04:06:02;30.15;;;6.80;;
21036;SDS011;10677;50.942;4.028;2022-12-24T04:08:29;29.40;;;6.20;;
21036;SDS011;10677;50.942;4.028;2022-12-24T04:10:55;37.03;;;5.18;;
21036;SDS011;10677;50.942;4.028;2022-12-24T04:13:21;32.78;;;5.57;;
21036;SDS011;10677;50.942;4.028;2022-12-24T04:16:06;30.65;;;4.88;;
21036;SDS011;10677;50.942;4.028;2022-12-24T04:18:33;30.10;;;5.72;;
21036;SDS011;10677;50.942;4.028;2022-12-24T04:21:00;42.55;;;6.25;;
21036;SDS011;10677;50.942;4.028;2022-12-24T04:23:25;35.67;;;6.07;;
21036;SDS011;10677;50.942;4.028;2022-12-24T04:25:54;29.55;;;4.82;;
21036;SDS011;10677;50.942;4.028;2022-12-24T04:28:19;29.13;;;4.53;;
21036;SDS011;10677;50.942;4.028;2022-12-24T04:30:45;37.53;;;5.32;;
21036;SDS011;10677;50.942;4.028;2022-12-24T04:33:11;30.35;;;5.35;;
21036;SDS011;10677;50.942;4.028;2022-12-24T04:35:41;30.98;;;5.65;;
21036;SDS011;10677;50.942;4.028;2022-12-24T04:38:07;24.15;;;4.90;;
21036;SDS011;10677;50.942;4.028;2022-12-24T04:40:34;37.33;;;5.78;;
21036;SDS011;10677;50.942;4.028;2022-12-24T04:42:59;33.72;;;5.68;;
21036;SDS011;10677;50.942;4.028;2022-12-24T04:45:25;38.08;;;5.47;;
21036;SDS011;10677;50.942;4.028;2022-12-24T04:47:51;35.47;;;5.18;;
21036;SDS011;10677;50.942;4.028;2022-12-24T04:50:16;41.38;;;8.30;;
21036;SDS011;10677;50.942;4.028;2022-12-24T04:52:42;27.73;;;4.60;;
21036;SDS011;10677;50.942;4.028;2022-12-24T04:55:08;34.28;;;5.65;;
21036;SDS011;10677;50.942;4.028;2022-12-24T04:57:34;35.00;;;5.63;;
21036;SDS011;10677;50.942;4.028;2022-12-24T05:00:02;28.75;;;4.78;;
21036;SDS011;10677;50.942;4.028;2022-12-24T05:02:29;33.90;;;5.35;;
21036;SDS011;10677;50.942;4.028;2022-12-24T05:04:54;37.35;;;5.95;;
21036;SDS011;10677;50.942;4.028;2022-12-24T05:07:20;27.83;;;5.15;;
21036;SDS011;10677;50.942;4.028;2022-12-24T05:09:46;29.70;;;5.63;;
21036;SDS011;10677;50.942;4.028;2022-12-24T05:12:12;43.15;;;6.20;;
21036;SDS011;10677;50.942;4.028;2022-12-24T05:14:38;30.92;;;4.85;;
21036;SDS011;10677;50.942;4.028;2022-12-24T05:17:04;34.25;;;5.30;;
21036;SDS011;10677;50.942;4.028;2022-12-24T05:19:30;32.50;;;4.70;;
21036;SDS011;10677;50.942;4.028;2022-12-24T05:21:56;41.63;;;6.05;;
21036;SDS011;10677;50.942;4.028;2022-12-24T05:24:42;31.48;;;5.55;;
21036;SDS011;10677;50.942;4.028;2022-12-24T05:27:26;39.03;;;6.10;;
21036;SDS011;10677;50.942;4.028;2022-12-24T05:29:52;40.78;;;5.97;;
21036;SDS011;10677;50.942;4.028;2022-12-24T05:32:17;27.73;;;5.60;;
21036;SDS011;10677;50.942;4.028;2022-12-24T05:34:43;32.95;;;5.78;;
21036;SDS011;10677;50.942;4.028;2022-12-24T05:37:09;26.30;;;4.45;;
21036;SDS011;10677;50.942;4.028;2022-12-24T05:39:34;34.80;;;5.53;;
21036;SDS011;10677;50.942;4.028;2022-12-24T05:42:00;33.10;;;5.28;;
21036;SDS011;10677;50.942;4.028;2022-12-24T05:44:26;32.65;;;5.18;;
21036;SDS011;10677;50.942;4.028;2022-12-24T05:46:51;37.35;;;6.05;;
21036;SDS011;10677;50.942;4.028;2022-12-24T05:49:17;31.40;;;5.78;;
21036;SDS011;10677;50.942;4.028;2022-12-24T05:51:43;47.40;;;8.00;;
21036;SDS011;10677;50.942;4.028;2022-12-24T05:54:08;35.45;;;5.85;;
21036;SDS011;10677;50.942;4.028;2022-12-24T05:56:35;31.73;;;5.85;;
21036;SDS011;10677;50.942;4.028;2022-12-24T05:59:01;31.15;;;5.38;;
21036;SDS011;10677;50.942;4.028;2022-12-24T06:01:27;39.10;;;6.82;;
21036;SDS011;10677;50.942;4.028;2022-12-24T06:03:52;32.00;;;5.80;;
21036;SDS011;10677;50.942;4.028;2022-12-24T06:06:19;40.28;;;6.70;;
21036;SDS011;10677;50.942;4.028;2022-12-24T06:08:49;40.03;;;6.45;;
21036;SDS011;10677;50.942;4.028;2022-12-24T06:11:17;30.50;;;6.03;;
21036;SDS011;10677;50.942;4.028;2022-12-24T06:13:44;38.85;;;6.65;;
21036;SDS011;10677;50.942;4.028;2022-12-24T06:16:11;39.08;;;5.72;;
21036;SDS011;10677;50.942;4.028;2022-12-24T06:18:38;31.38;;;6.03;;
21036;SDS011;10677;50.942;4.028;2022-12-24T06:21:05;39.80;;;6.88;;
21036;SDS011;10677;50.942;4.028;2022-12-24T06:23:31;29.45;;;6.13;;
21036;SDS011;10677;50.942;4.028;2022-12-24T06:25:59;37.95;;;5.85;;
21036;SDS011;10677;50.942;4.028;2022-12-24T06:28:26;33.03;;;6.38;;
21036;SDS011;10677;50.942;4.028;2022-12-24T06:30:57;38.20;;;5.88;;
21036;SDS011;10677;50.942;4.028;2022-12-24T06:33:23;36.05;;;6.30;;
21036;SDS011;10677;50.942;4.028;2022-12-24T06:35:48;26.35;;;5.90;;
21036;SDS011;10677;50.942;4.028;2022-12-24T06:38:16;34.50;;;7.00;;
21036;SDS011;10677;50.942;4.028;2022-12-24T06:40:42;38.33;;;6.28;;
21036;SDS011;10677;50.942;4.028;2022-12-24T06:43:09;29.55;;;6.13;;
21036;SDS011;10677;50.942;4.028;2022-12-24T06:45:35;20.80;;;4.75;;
21036;SDS011;10677;50.942;4.028;2022-12-24T06:48:01;37.15;;;6.43;;
21036;SDS011;10677;50.942;4.028;2022-12-24T06:50:27;38.00;;;6.70;;
21036;SDS011;10677;50.942;4.028;2022-12-24T06:52:52;29.50;;;5.88;;
21036;SDS011;10677;50.942;4.028;2022-12-24T06:55:20;32.45;;;6.45;;
21036;SDS011;10677;50.942;4.028;2022-12-24T06:57:46;38.25;;;6.00;;
21036;SDS011;10677;50.942;4.028;2022-12-24T07:00:11;36.35;;;6.07;;
21036;SDS011;10677;50.942;4.028;2022-12-24T07:02:38;36.25;;;6.47;;
21036;SDS011;10677;50.942;4.028;2022-12-24T07:05:05;34.80;;;5.82;;
21036;SDS011;10677;50.942;4.028;2022-12-24T07:07:33;35.17;;;6.53;;
21036;SDS011;10677;50.942;4.028;2022-12-24T07:10:03;37.40;;;6.07;;
21036;SDS011;10677;50.942;4.028;2022-12-24T07:12:29;35.30;;;6.30;;
21036;SDS011;10677;50.942;4.028;2022-12-24T07:14:55;36.05;;;6.00;;
21036;SDS011;10677;50.942;4.028;2022-12-24T07:17:21;36.15;;;5.90;;
21036;SDS011;10677;50.942;4.028;2022-12-24T07:19:46;40.35;;;6.70;;
21036;SDS011;10677;50.942;4.028;2022-12-24T07:22:12;36.97;;;5.85;;
21036;SDS011;10677;50.942;4.028;2022-12-24T07:24:38;31.05;;;5.95;;
21036;SDS011;10677;50.942;4.028;2022-12-24T07:27:03;34.08;;;6.18;;
21036;SDS011;10677;50.942;4.028;2022-12-24T07:29:29;34.10;;;7.50;;
21036;SDS011;10677;50.942;4.028;2022-12-24T07:31:55;27.73;;;5.22;;
21036;SDS011;10677;50.942;4.028;2022-12-24T07:34:21;41.95;;;6.55;;
21036;SDS011;10677;50.942;4.028;2022-12-24T07:36:46;42.45;;;7.18;;
21036;SDS011;10677;50.942;4.028;2022-12-24T07:39:12;31.98;;;5.82;;
21036;SDS011;10677;50.942;4.028;2022-12-24T07:41:37;39.97;;;6.65;;
21036;SDS011;10677;50.942;4.028;2022-12-24T07:44:03;36.65;;;6.32;;
21036;SDS011;10677;50.942;4.028;2022-12-24T07:46:29;32.10;;;6.90;;
21036;SDS011;10677;50.942;4.028;2022-12-24T07:48:54;41.22;;;8.50;;
21036;SDS011;10677;50.942;4.028;2022-12-24T07:51:20;41.33;;;7.10;;
21036;SDS011;10677;50.942;4.028;2022-12-24T07:53:46;32.38;;;6.32;;
21036;SDS011;10677;50.942;4.028;2022-12-24T07:56:13;38.65;;;6.90;;
21036;SDS011;10677;50.942;4.028;2022-12-24T07:58:39;45.25;;;7.38;;
21036;SDS011;10677;50.942;4.028;2022-12-24T08:01:06;33.58;;;7.13;;
21036;SDS011;10677;50.942;4.028;2022-12-24T08:03:32;42.33;;;6.72;;
21036;SDS011;10677;50.942;4.028;2022-12-24T08:05:58;37.70;;;7.30;;
21036;SDS011;10677;50.942;4.028;2022-12-24T08:08:24;32.75;;;7.03;;
21036;SDS011;10677;50.942;4.028;2022-12-24T08:10:50;38.22;;;6.78;;
21036;SDS011;10677;50.942;4.028;2022-12-24T08:13:16;41.20;;;6.60;;
21036;SDS011;10677;50.942;4.028;2022-12-24T08:15:42;31.52;;;7.18;;
21036;SDS011;10677;50.942;4.028;2022-12-24T08:18:09;43.40;;;6.90;;
21036;SDS011;10677;50.942;4.028;2022-12-24T08:20:37;31.90;;;6.43;;
21036;SDS011;10677;50.942;4.028;2022-12-24T08:23:03;37.53;;;6.80;;
21036;SDS011;10677;50.942;4.028;2022-12-24T08:25:29;44.67;;;6.45;;
21036;SDS011;10677;50.942;4.028;2022-12-24T08:27:56;36.60;;;6.82;;
21036;SDS011;10677;50.942;4.028;2022-12-24T08:30:21;48.88;;;7.75;;
21036;SDS011;10677;50.942;4.028;2022-12-24T08:32:47;35.55;;;6.00;;
21036;SDS011;10677;50.942;4.028;2022-12-24T08:35:13;39.08;;;6.63;;
21036;SDS011;10677;50.942;4.028;2022-12-24T08:37:39;38.60;;;6.30;;
21036;SDS011;10677;50.942;4.028;2022-12-24T08:40:06;39.95;;;6.95;;
21036;SDS011;10677;50.942;4.028;2022-12-24T08:42:32;41.95;;;6.90;;
21036;SDS011;10677;50.942;4.028;2022-12-24T08:44:58;32.78;;;6.43;;
21036;SDS011;10677;50.942;4.028;2022-12-24T08:47:25;30.70;;;6.75;;
21036;SDS011;10677;50.942;4.028;2022-12-24T08:49:51;43.08;;;6.15;;
21036;SDS011;10677;50.942;4.028;2022-12-24T08:52:17;36.33;;;6.63;;
21036;SDS011;10677;50.942;4.028;2022-12-24T08:54:42;43.25;;;6.32;;
21036;SDS011;10677;50.942;4.028;2022-12-24T08:57:08;33.50;;;5.72;;
21036;SDS011;10677;50.942;4.028;2022-12-24T08:59:34;34.88;;;5.82;;
21036;SDS011;10677;50.942;4.028;2022-12-24T09:01:59;32.65;;;5.65;;
21036;SDS011;10677;50.942;4.028;2022-12-24T09:04:26;32.85;;;6.38;;
21036;SDS011;10677;50.942;4.028;2022-12-24T09:06:52;30.48;;;6.03;;
21036;SDS011;10677;50.942;4.028;2022-12-24T09:09:17;35.65;;;6.40;;
21036;SDS011;10677;50.942;4.028;2022-12-24T09:11:43;37.88;;;6.10;;
21036;SDS011;10677;50.942;4.028;2022-12-24T09:14:09;38.92;;;7.50;;
21036;SDS011;10677;50.942;4.028;2022-12-24T09:16:35;35.15;;;6.25;;
21036;SDS011;10677;50.942;4.028;2022-12-24T09:19:01;27.95;;;6.88;;
21036;SDS011;10677;50.942;4.028;2022-12-24T09:21:27;31.67;;;6.75;;
21036;SDS011;10677;50.942;4.028;2022-12-24T09:23:53;27.90;;;5.93;;
21036;SDS011;10677;50.942;4.028;2022-12-24T09:26:20;34.17;;;5.90;;
21036;SDS011;10677;50.942;4.028;2022-12-24T09:28:48;37.05;;;7.25;;
21036;SDS011;10677;50.942;4.028;2022-12-24T09:31:14;31.40;;;6.15;;
21036;SDS011;10677;50.942;4.028;2022-12-24T09:33:40;35.97;;;6.82;;
21036;SDS011;10677;50.942;4.028;2022-12-24T09:36:07;31.15;;;7.05;;
21036;SDS011;10677;50.942;4.028;2022-12-24T09:38:33;37.40;;;6.72;;
21036;SDS011;10677;50.942;4.028;2022-12-24T09:40:59;40.40;;;6.88;;
21036;SDS011;10677;50.942;4.028;2022-12-24T09:43:26;28.33;;;6.22;;
21036;SDS011;10677;50.942;4.028;2022-12-24T09:49:05;28.08;;;6.55;;
21036;SDS011;10677;50.942;4.028;2022-12-24T09:51:42;34.88;;;6.65;;
21036;SDS011;10677;50.942;4.028;2022-12-24T09:54:24;37.45;;;7.70;;
21036;SDS011;10677;50.942;4.028;2022-12-24T09:57:04;37.85;;;6.30;;
21036;SDS011;10677;50.942;4.028;2022-12-24T09:59:40;40.85;;;6.72;;
21036;SDS011;10677;50.942;4.028;2022-12-24T10:02:11;31.60;;;6.45;;
21036;SDS011;10677;50.942;4.028;2022-12-24T10:04:40;33.78;;;7.18;;
21036;SDS011;10677;50.942;4.028;2022-12-24T10:10:11;36.72;;;6.05;;
21036;SDS011;10677;50.942;4.028;2022-12-24T10:21:05;41.88;;;7.65;;
21036;SDS011;10677;50.942;4.028;2022-12-24T10:23:42;45.47;;;7.05;;
21036;SDS011;10677;50.942;4.028;2022-12-24T10:28:51;30.83;;;5.57;;
21036;SDS011;10677;50.942;4.028;2022-12-24T10:31:38;35.05;;;5.70;;
21036;SDS011;10677;50.942;4.028;2022-12-24T10:34:09;26.73;;;5.05;;
21036;SDS011;10677;50.942;4.028;2022-12-24T10:36:39;28.50;;;5.47;;
21036;SDS011;10677;50.942;4.028;2022-12-24T10:39:07;33.75;;;5.60;;
21036;SDS011;10677;50.942;4.028;2022-12-24T10:41:45;28.20;;;6.28;;
21036;SDS011;10677;50.942;4.028;2022-12-24T10:44:14;36.40;;;6.50;;
21036;SDS011;10677;50.942;4.028;2022-12-24T10:46:42;30.20;;;5.38;;
21036;SDS011;10677;50.942;4.028;2022-12-24T10:49:14;34.65;;;5.63;;
21036;SDS011;10677;50.942;4.028;2022-12-24T10:51:53;37.35;;;5.82;;
21036;SDS011;10677;50.942;4.028;2022-12-24T10:54:23;30.65;;;5.60;;
21036;SDS011;10677;50.942;4.028;2022-12-24T10:56:54;41.30;;;6.28;;
21036;SDS011;10677;50.942;4.028;2022-12-24T10:59:33;27.95;;;5.50;;
21036;SDS011;10677;50.942;4.028;2022-12-24T11:02:24;28.17;;;6.38;;
21036;SDS011;10677;50.942;4.028;2022-12-24T11:04:55;41.22;;;6.25;;
21036;SDS011;10677;50.942;4.028;2022-12-24T11:07:21;28.77;;;5.32;;
21036;SDS011;10677;50.942;4.028;2022-12-24T11:09:58;34.97;;;7.10;;
21036;SDS011;10677;50.942;4.028;2022-12-24T11:12:38;37.92;;;7.13;;
21036;SDS011;10677;50.942;4.028;2022-12-24T11:15:30;33.60;;;6.20;;
21036;SDS011;10677;50.942;4.028;2022-12-24T11:18:12;38.10;;;6.35;;
21036;SDS011;10677;50.942;4.028;2022-12-24T11:20:39;34.20;;;6.75;;
21036;SDS011;10677;50.942;4.028;2022-12-24T11:23:13;35.83;;;6.53;;
21036;SDS011;10677;50.942;4.028;2022-12-24T11:25:41;32.45;;;6.70;;
21036;SDS011;10677;50.942;4.028;2022-12-24T11:28:23;35.30;;;6.63;;
21036;SDS011;10677;50.942;4.028;2022-12-24T11:30:58;29.90;;;6.47;;
21036;SDS011;10677;50.942;4.028;2022-12-24T11:33:26;32.92;;;6.80;;
21036;SDS011;10677;50.942;4.028;2022-12-24T11:35:59;27.85;;;5.47;;
21036;SDS011;10677;50.942;4.028;2022-12-24T11:38:27;39.00;;;7.75;;
21036;SDS011;10677;50.942;4.028;2022-12-24T11:41:02;43.28;;;6.40;;
21036;SDS011;10677;50.942;4.028;2022-12-24T11:43:45;31.42;;;6.20;;
21036;SDS011;10677;50.942;4.028;2022-12-24T11:46:14;33.90;;;6.55;;
21036;SDS011;10677;50.942;4.028;2022-12-24T11:48:45;32.25;;;6.32;;
21036;SDS011;10677;50.942;4.028;2022-12-24T11:51:22;29.30;;;6.30;;
21036;SDS011;10677;50.942;4.028;2022-12-24T11:54:11;31.23;;;6.07;;
21036;SDS011;10677;50.942;4.028;2022-12-24T11:56:43;37.67;;;6.53;;
21036;SDS011;10677;50.942;4.028;2022-12-24T12:01:54;25.52;;;5.68;;
21036;SDS011;10677;50.942;4.028;2022-12-24T12:04:28;31.33;;;6.35;;
21036;SDS011;10677;50.942;4.028;2022-12-24T12:07:03;26.50;;;6.53;;
21036;SDS011;10677;50.942;4.028;2022-12-24T12:09:38;33.05;;;7.20;;
21036;SDS011;10677;50.942;4.028;2022-12-24T12:12:13;33.65;;;7.68;;
21036;SDS011;10677;50.942;4.028;2022-12-24T12:17:49;31.73;;;6.45;;
21036;SDS011;10677;50.942;4.028;2022-12-24T12:20:22;28.13;;;6.18;;
21036;SDS011;10677;50.942;4.028;2022-12-24T12:25:43;35.88;;;6.72;;
21036;SDS011;10677;50.942;4.028;2022-12-24T12:33:36;30.05;;;7.43;;
21036;SDS011;10677;50.942;4.028;2022-12-24T12:36:14;30.85;;;6.60;;
21036;SDS011;10677;50.942;4.028;2022-12-24T12:38:45;30.02;;;5.78;;
21036;SDS011;10677;50.942;4.028;2022-12-24T12:41:13;30.60;;;7.68;;
21036;SDS011;10677;50.942;4.028;2022-12-24T12:50:13;27.65;;;6.65;;
21036;SDS011;10677;50.942;4.028;2022-12-24T12:58:15;32.78;;;6.95;;
21036;SDS011;10677;50.942;4.028;2022-12-24T13:00:48;35.45;;;7.15;;
21036;SDS011;10677;50.942;4.028;2022-12-24T13:03:40;27.52;;;6.65;;
21036;SDS011;10677;50.942;4.028;2022-12-24T13:14:56;30.88;;;9.60;;
21036;SDS011;10677;50.942;4.028;2022-12-24T13:20:30;34.30;;;7.72;;
21036;SDS011;10677;50.942;4.028;2022-12-24T13:23:13;31.60;;;8.68;;
21036;SDS011;10677;50.942;4.028;2022-12-24T13:25:46;38.00;;;7.53;;
21036;SDS011;10677;50.942;4.028;2022-12-24T13:28:29;29.55;;;7.10;;
21036;SDS011;10677;50.942;4.028;2022-12-24T13:36:07;29.08;;;6.38;;
21036;SDS011;10677;50.942;4.028;2022-12-24T13:38:38;34.80;;;6.38;;
21036;SDS011;10677;50.942;4.028;2022-12-24T13:49:55;26.10;;;5.75;;
21036;SDS011;10677;50.942;4.028;2022-12-24T13:52:20;29.95;;;5.22;;
21036;SDS011;10677;50.942;4.028;2022-12-24T14:02:34;31.20;;;6.60;;
21036;SDS011;10677;50.942;4.028;2022-12-24T14:05:06;30.23;;;5.43;;
21036;SDS011;10677;50.942;4.028;2022-12-24T14:07:45;30.75;;;6.63;;
21036;SDS011;10677;50.942;4.028;2022-12-24T14:10:21;30.27;;;6.38;;
21036;SDS011;10677;50.942;4.028;2022-12-24T14:12:50;30.02;;;5.72;;
21036;SDS011;10677;50.942;4.028;2022-12-24T14:18:21;29.98;;;5.85;;
21036;SDS011;10677;50.942;4.028;2022-12-24T14:20:52;31.00;;;7.10;;
21036;SDS011;10677;50.942;4.028;2022-12-24T14:26:02;36.20;;;6.85;;
21036;SDS011;10677;50.942;4.028;2022-12-24T14:28:31;28.52;;;5.72;;
21036;SDS011;10677;50.942;4.028;2022-12-24T14:31:00;32.88;;;6.90;;
21036;SDS011;10677;50.942;4.028;2022-12-24T14:33:30;28.35;;;5.75;;
21036;SDS011;10677;50.942;4.028;2022-12-24T14:35:58;33.42;;;6.72;;
21036;SDS011;10677;50.942;4.028;2022-12-24T14:38:24;39.50;;;6.97;;
21036;SDS011;10677;50.942;4.028;2022-12-24T14:46:35;32.25;;;6.55;;
21036;SDS011;10677;50.942;4.028;2022-12-24T14:54:42;38.53;;;9.73;;
21036;SDS011;10677;50.942;4.028;2022-12-24T14:57:13;34.80;;;8.10;;
21036;SDS011;10677;50.942;4.028;2022-12-24T15:05:19;37.78;;;8.98;;
21036;SDS011;10677;50.942;4.028;2022-12-24T15:10:25;42.55;;;9.55;;
21036;SDS011;10677;50.942;4.028;2022-12-24T15:12:57;39.80;;;9.57;;
21036;SDS011;10677;50.942;4.028;2022-12-24T15:15:28;38.08;;;9.70;;
21036;SDS011;10677;50.942;4.028;2022-12-24T15:17:54;39.22;;;11.13;;
21036;SDS011;10677;50.942;4.028;2022-12-24T15:20:22;33.10;;;11.45;;
21036;SDS011;10677;50.942;4.028;2022-12-24T15:22:51;38.42;;;11.20;;
21036;SDS011;10677;50.942;4.028;2022-12-24T15:25:37;40.45;;;11.90;;
21036;SDS011;10677;50.942;4.028;2022-12-24T15:28:13;45.97;;;13.85;;
21036;SDS011;10677;50.942;4.028;2022-12-24T15:30:43;37.97;;;11.55;;
21036;SDS011;10677;50.942;4.028;2022-12-24T15:33:09;39.28;;;10.50;;
21036;SDS011;10677;50.942;4.028;2022-12-24T15:40:58;36.47;;;10.38;;
21036;SDS011;10677;50.942;4.028;2022-12-24T15:43:28;30.83;;;10.02;;
21036;SDS011;10677;50.942;4.028;2022-12-24T15:45:55;37.72;;;10.15;;
21036;SDS011;10677;50.942;4.028;2022-12-24T15:48:24;36.55;;;10.07;;
21036;SDS011;10677;50.942;4.028;2022-12-24T15:51:01;37.50;;;10.18;;
21036;SDS011;10677;50.942;4.028;2022-12-24T15:53:33;33.00;;;10.02;;
21036;SDS011;10677;50.942;4.028;2022-12-24T15:58:52;37.55;;;11.40;;
21036;SDS011;10677;50.942;4.028;2022-12-24T16:01:55;36.20;;;11.50;;
21036;SDS011;10677;50.942;4.028;2022-12-24T16:04:26;54.42;;;18.38;;
21036;SDS011;10677;50.942;4.028;2022-12-24T16:06:53;49.22;;;15.40;;
21036;SDS011;10677;50.942;4.028;2022-12-24T16:12:17;49.28;;;13.80;;
21036;SDS011;10677;50.942;4.028;2022-12-24T16:14:46;50.28;;;12.10;;
21036;SDS011;10677;50.942;4.028;2022-12-24T16:17:19;42.50;;;10.75;;
21036;SDS011;10677;50.942;4.028;2022-12-24T16:19:47;44.58;;;10.18;;
21036;SDS011;10677;50.942;4.028;2022-12-24T16:22:19;36.88;;;11.35;;
21036;SDS011;10677;50.942;4.028;2022-12-24T16:24:56;39.72;;;12.15;;
21036;SDS011;10677;50.942;4.028;2022-12-24T16:27:22;46.30;;;14.65;;
21036;SDS011;10677;50.942;4.028;2022-12-24T16:29:48;40.47;;;10.48;;
21036;SDS011;10677;50.942;4.028;2022-12-24T16:32:20;35.65;;;9.68;;
21036;SDS011;10677;50.942;4.028;2022-12-24T16:34:49;31.60;;;9.63;;
21036;SDS011;10677;50.942;4.028;2022-12-24T16:37:15;38.70;;;7.93;;
21036;SDS011;10677;50.942;4.028;2022-12-24T16:39:47;35.67;;;7.80;;
21036;SDS011;10677;50.942;4.028;2022-12-24T16:42:13;39.95;;;8.95;;
21036;SDS011;10677;50.942;4.028;2022-12-24T16:44:57;38.97;;;9.07;;
21036;SDS011;10677;50.942;4.028;2022-12-24T16:47:27;43.80;;;9.20;;
21036;SDS011;10677;50.942;4.028;2022-12-24T16:49:55;34.20;;;9.27;;
21036;SDS011;10677;50.942;4.028;2022-12-24T16:52:22;41.17;;;8.75;;
21036;SDS011;10677;50.942;4.028;2022-12-24T16:54:50;35.65;;;8.45;;
21036;SDS011;10677;50.942;4.028;2022-12-24T16:57:17;36.58;;;8.98;;
21036;SDS011;10677;50.942;4.028;2022-12-24T16:59:43;40.80;;;9.30;;
21036;SDS011;10677;50.942;4.028;2022-12-24T17:02:09;36.13;;;9.35;;
21036;SDS011;10677;50.942;4.028;2022-12-24T17:04:41;39.75;;;9.90;;